sensor_id;sensor_type;location;lat;lon;timestamp;P1;durP1;ratioP1;P2;durP2;ratioP2
52434;SDS011;38354;52.892;6.148;2024-03-08T04:01:36;54.15;;;21.50;;
52434;SDS011;38354;52.892;6.148;2024-03-08T04:04:01;45.63;;;21.90;;
52434;SDS011;38354;52.892;6.148;2024-03-08T04:06:27;48.70;;;21.13;;
52434;SDS011;38354;52.892;6.148;2024-03-08T04:08:53;46.25;;;20.35;;
52434;SDS011;38354;52.892;6.148;2024-03-08T04:11:19;46.25;;;20.27;;
52434;SDS011;38354;52.892;6.148;2024-03-08T04:13:44;46.10;;;22.25;;
52434;SDS011;38354;52.892;6.148;2024-03-08T04:16:10;44.53;;;21.17;;
52434;SDS011;38354;52.892;6.148;2024-03-08T04:18:36;48.67;;;22.60;;
52434;SDS011;38354;52.892;6.148;2024-03-08T04:21:03;48.60;;;21.95;;
52434;SDS011;38354;52.892;6.148;2024-03-08T04:23:33;50.35;;;21.90;;
52434;SDS011;38354;52.892;6.148;2024-03-08T04:26:01;48.97;;;22.00;;
52434;SDS011;38354;52.892;6.148;2024-03-08T04:28:28;51.35;;;22.30;;
52434;SDS011;38354;52.892;6.148;2024-03-08T04:30:54;47.80;;;22.27;;
52434;SDS011;38354;52.892;6.148;2024-03-08T04:33:19;49.30;;;22.40;;
52434;SDS011;38354;52.892;6.148;2024-03-08T04:35:46;48.92;;;22.50;;
52434;SDS011;38354;52.892;6.148;2024-03-08T04:38:12;51.60;;;21.58;;
52434;SDS011;38354;52.892;6.148;2024-03-08T04:40:38;50.13;;;22.65;;
52434;SDS011;38354;52.892;6.148;2024-03-08T04:43:04;53.35;;;22.10;;
52434;SDS011;38354;52.892;6.148;2024-03-08T04:45:31;49.45;;;21.92;;
52434;SDS011;38354;52.892;6.148;2024-03-08T04:47:56;47.80;;;22.13;;
52434;SDS011;38354;52.892;6.148;2024-03-08T04:50:22;50.53;;;22.08;;
52434;SDS011;38354;52.892;6.148;2024-03-08T04:52:48;49.42;;;22.42;;
52434;SDS011;38354;52.892;6.148;2024-03-08T04:55:14;49.88;;;21.98;;
52434;SDS011;38354;52.892;6.148;2024-03-08T04:57:39;45.28;;;21.58;;
52434;SDS011;38354;52.892;6.148;2024-03-08T05:00:07;46.85;;;21.70;;
52434;SDS011;38354;52.892;6.148;2024-03-08T05:02:36;47.72;;;21.80;;
52434;SDS011;38354;52.892;6.148;2024-03-08T05:05:04;53.17;;;22.52;;
52434;SDS011;38354;52.892;6.148;2024-03-08T05:07:31;48.97;;;21.90;;
52434;SDS011;38354;52.892;6.148;2024-03-08T05:09:58;49.15;;;22.35;;
52434;SDS011;38354;52.892;6.148;2024-03-08T05:12:24;54.08;;;22.92;;
52434;SDS011;38354;52.892;6.148;2024-03-08T05:14:49;51.90;;;22.67;;
52434;SDS011;38354;52.892;6.148;2024-03-08T05:17:15;52.40;;;23.08;;
52434;SDS011;38354;52.892;6.148;2024-03-08T05:19:44;49.20;;;22.48;;
52434;SDS011;38354;52.892;6.148;2024-03-08T05:22:09;50.70;;;22.30;;
52434;SDS011;38354;52.892;6.148;2024-03-08T05:24:35;45.05;;;22.40;;
52434;SDS011;38354;52.892;6.148;2024-03-08T05:27:01;53.33;;;22.35;;
52434;SDS011;38354;52.892;6.148;2024-03-08T05:29:28;45.67;;;22.05;;
52434;SDS011;38354;52.892;6.148;2024-03-08T05:31:54;52.33;;;22.35;;
52434;SDS011;38354;52.892;6.148;2024-03-08T05:34:21;50.17;;;23.67;;
52434;SDS011;38354;52.892;6.148;2024-03-08T05:36:47;46.65;;;21.30;;
52434;SDS011;38354;52.892;6.148;2024-03-08T05:39:15;50.10;;;21.88;;
52434;SDS011;38354;52.892;6.148;2024-03-08T05:41:42;49.13;;;22.60;;
52434;SDS011;38354;52.892;6.148;2024-03-08T05:44:08;49.80;;;23.00;;
52434;SDS011;38354;52.892;6.148;2024-03-08T05:46:35;53.17;;;24.23;;
52434;SDS011;38354;52.892;6.148;2024-03-08T05:49:04;48.85;;;21.65;;
52434;SDS011;38354;52.892;6.148;2024-03-08T05:51:31;55.72;;;23.75;;
52434;SDS011;38354;52.892;6.148;2024-03-08T05:54:00;53.72;;;22.48;;
52434;SDS011;38354;52.892;6.148;2024-03-08T05:56:30;50.10;;;21.83;;
52434;SDS011;38354;52.892;6.148;2024-03-08T05:58:59;49.15;;;21.60;;
52434;SDS011;38354;52.892;6.148;2024-03-08T06:01:25;49.50;;;22.08;;
52434;SDS011;38354;52.892;6.148;2024-03-08T06:03:54;54.83;;;23.00;;
52434;SDS011;38354;52.892;6.148;2024-03-08T06:06:25;49.97;;;22.75;;
52434;SDS011;38354;52.892;6.148;2024-03-08T06:08:51;51.95;;;22.70;;
52434;SDS011;38354;52.892;6.148;2024-03-08T06:11:18;59.50;;;23.90;;
52434;SDS011;38354;52.892;6.148;2024-03-08T06:13:45;50.80;;;22.17;;
52434;SDS011;38354;52.892;6.148;2024-03-08T06:16:11;50.00;;;23.30;;
52434;SDS011;38354;52.892;6.148;2024-03-08T06:18:37;50.35;;;22.80;;
52434;SDS011;38354;52.892;6.148;2024-03-08T06:21:04;53.92;;;22.75;;
52434;SDS011;38354;52.892;6.148;2024-03-08T06:23:33;48.88;;;23.13;;
52434;SDS011;38354;52.892;6.148;2024-03-08T06:26:03;47.95;;;22.90;;
52434;SDS011;38354;52.892;6.148;2024-03-08T06:28:38;56.08;;;23.02;;
52434;SDS011;38354;52.892;6.148;2024-03-08T06:31:03;49.55;;;23.60;;
52434;SDS011;38354;52.892;6.148;2024-03-08T06:33:29;50.97;;;22.05;;
52434;SDS011;38354;52.892;6.148;2024-03-08T06:35:58;49.88;;;21.63;;
52434;SDS011;38354;52.892;6.148;2024-03-08T06:38:24;49.65;;;22.17;;
52434;SDS011;38354;52.892;6.148;2024-03-08T06:40:50;53.10;;;23.48;;
52434;SDS011;38354;52.892;6.148;2024-03-08T06:43:16;50.45;;;23.35;;
52434;SDS011;38354;52.892;6.148;2024-03-08T06:45:43;48.97;;;22.83;;
52434;SDS011;38354;52.892;6.148;2024-03-08T06:48:18;49.70;;;22.35;;
52434;SDS011;38354;52.892;6.148;2024-03-08T06:50:44;51.83;;;22.52;;
52434;SDS011;38354;52.892;6.148;2024-03-08T06:53:11;50.05;;;23.00;;
52434;SDS011;38354;52.892;6.148;2024-03-08T06:55:38;47.42;;;22.95;;
52434;SDS011;38354;52.892;6.148;2024-03-08T06:58:04;53.00;;;23.88;;
52434;SDS011;38354;52.892;6.148;2024-03-08T07:00:32;50.53;;;22.42;;
52434;SDS011;38354;52.892;6.148;2024-03-08T07:02:58;48.95;;;22.58;;
52434;SDS011;38354;52.892;6.148;2024-03-08T07:05:27;48.08;;;21.90;;
52434;SDS011;38354;52.892;6.148;2024-03-08T07:07:53;51.70;;;22.48;;
52434;SDS011;38354;52.892;6.148;2024-03-08T07:10:20;49.42;;;23.45;;
52434;SDS011;38354;52.892;6.148;2024-03-08T07:12:48;48.50;;;21.75;;
52434;SDS011;38354;52.892;6.148;2024-03-08T07:15:14;49.22;;;22.23;;
52434;SDS011;38354;52.892;6.148;2024-03-08T07:17:41;55.65;;;24.80;;
52434;SDS011;38354;52.892;6.148;2024-03-08T07:20:09;48.10;;;22.38;;
52434;SDS011;38354;52.892;6.148;2024-03-08T07:22:37;48.40;;;21.92;;
52434;SDS011;38354;52.892;6.148;2024-03-08T07:25:06;45.35;;;20.95;;
52434;SDS011;38354;52.892;6.148;2024-03-08T07:27:33;49.88;;;22.15;;
52434;SDS011;38354;52.892;6.148;2024-03-08T07:30:01;47.33;;;21.73;;
52434;SDS011;38354;52.892;6.148;2024-03-08T07:32:30;45.67;;;21.80;;
52434;SDS011;38354;52.892;6.148;2024-03-08T07:34:56;48.17;;;21.80;;
52434;SDS011;38354;52.892;6.148;2024-03-08T07:37:22;47.42;;;21.90;;
52434;SDS011;38354;52.892;6.148;2024-03-08T07:39:48;45.92;;;20.33;;
52434;SDS011;38354;52.892;6.148;2024-03-08T07:42:15;45.13;;;21.27;;
52434;SDS011;38354;52.892;6.148;2024-03-08T07:44:41;47.03;;;22.15;;
52434;SDS011;38354;52.892;6.148;2024-03-08T07:47:08;47.47;;;21.90;;
52434;SDS011;38354;52.892;6.148;2024-03-08T07:49:35;42.80;;;20.10;;
52434;SDS011;38354;52.892;6.148;2024-03-08T07:52:02;43.80;;;21.75;;
52434;SDS011;38354;52.892;6.148;2024-03-08T07:54:29;45.28;;;20.58;;
52434;SDS011;38354;52.892;6.148;2024-03-08T07:56:55;46.55;;;21.90;;
52434;SDS011;38354;52.892;6.148;2024-03-08T07:59:21;44.00;;;21.73;;
52434;SDS011;38354;52.892;6.148;2024-03-08T08:01:46;50.97;;;22.02;;
52434;SDS011;38354;52.892;6.148;2024-03-08T08:04:13;42.00;;;20.42;;
52434;SDS011;38354;52.892;6.148;2024-03-08T08:06:39;43.88;;;20.60;;
52434;SDS011;38354;52.892;6.148;2024-03-08T08:09:08;41.33;;;21.00;;
52434;SDS011;38354;52.892;6.148;2024-03-08T08:11:42;43.50;;;20.52;;
52434;SDS011;38354;52.892;6.148;2024-03-08T08:14:11;42.08;;;19.50;;
52434;SDS011;38354;52.892;6.148;2024-03-08T08:16:37;42.85;;;19.83;;
52434;SDS011;38354;52.892;6.148;2024-03-08T08:19:03;40.47;;;19.67;;
52434;SDS011;38354;52.892;6.148;2024-03-08T08:21:35;40.80;;;20.13;;
52434;SDS011;38354;52.892;6.148;2024-03-08T08:24:02;41.75;;;19.98;;
52434;SDS011;38354;52.892;6.148;2024-03-08T08:26:29;44.72;;;21.13;;
52434;SDS011;38354;52.892;6.148;2024-03-08T08:28:54;38.45;;;19.42;;
52434;SDS011;38354;52.892;6.148;2024-03-08T08:31:20;42.33;;;19.88;;
52434;SDS011;38354;52.892;6.148;2024-03-08T08:33:46;41.40;;;20.10;;
52434;SDS011;38354;52.892;6.148;2024-03-08T08:36:13;37.42;;;18.73;;
52434;SDS011;38354;52.892;6.148;2024-03-08T08:38:39;36.03;;;18.65;;
52434;SDS011;38354;52.892;6.148;2024-03-08T08:41:08;37.67;;;20.05;;
52434;SDS011;38354;52.892;6.148;2024-03-08T08:43:34;37.63;;;19.17;;
52434;SDS011;38354;52.892;6.148;2024-03-08T08:46:00;36.70;;;19.00;;
52434;SDS011;38354;52.892;6.148;2024-03-08T08:48:26;36.25;;;18.15;;
52434;SDS011;38354;52.892;6.148;2024-03-08T08:50:54;39.05;;;19.40;;
52434;SDS011;38354;52.892;6.148;2024-03-08T08:53:20;37.40;;;19.10;;
52434;SDS011;38354;52.892;6.148;2024-03-08T08:55:47;41.08;;;19.77;;
52434;SDS011;38354;52.892;6.148;2024-03-08T08:58:12;39.95;;;19.38;;
52434;SDS011;38354;52.892;6.148;2024-03-08T09:00:39;39.95;;;19.75;;
52434;SDS011;38354;52.892;6.148;2024-03-08T09:03:05;39.00;;;18.88;;
52434;SDS011;38354;52.892;6.148;2024-03-08T09:05:32;36.97;;;19.08;;
52434;SDS011;38354;52.892;6.148;2024-03-08T09:07:59;39.15;;;20.90;;
52434;SDS011;38354;52.892;6.148;2024-03-08T09:10:25;42.83;;;20.13;;
52434;SDS011;38354;52.892;6.148;2024-03-08T09:12:50;39.65;;;20.55;;
52434;SDS011;38354;52.892;6.148;2024-03-08T09:15:16;37.35;;;19.73;;
52434;SDS011;38354;52.892;6.148;2024-03-08T09:17:45;40.03;;;21.02;;
52434;SDS011;38354;52.892;6.148;2024-03-08T09:20:12;35.72;;;19.02;;
52434;SDS011;38354;52.892;6.148;2024-03-08T09:22:43;40.75;;;19.88;;
52434;SDS011;38354;52.892;6.148;2024-03-08T09:25:09;36.80;;;19.77;;
52434;SDS011;38354;52.892;6.148;2024-03-08T09:27:35;40.20;;;21.00;;
52434;SDS011;38354;52.892;6.148;2024-03-08T09:30:00;37.50;;;20.02;;
52434;SDS011;38354;52.892;6.148;2024-03-08T09:32:26;36.17;;;20.08;;
52434;SDS011;38354;52.892;6.148;2024-03-08T09:34:52;38.72;;;20.17;;
52434;SDS011;38354;52.892;6.148;2024-03-08T09:37:18;39.90;;;20.90;;
52434;SDS011;38354;52.892;6.148;2024-03-08T09:39:44;39.60;;;21.35;;
52434;SDS011;38354;52.892;6.148;2024-03-08T09:42:10;42.40;;;21.00;;
52434;SDS011;38354;52.892;6.148;2024-03-08T09:44:40;38.47;;;20.35;;
52434;SDS011;38354;52.892;6.148;2024-03-08T09:47:10;34.83;;;19.48;;
52434;SDS011;38354;52.892;6.148;2024-03-08T09:49:40;37.53;;;20.15;;
52434;SDS011;38354;52.892;6.148;2024-03-08T09:52:07;37.17;;;21.13;;
52434;SDS011;38354;52.892;6.148;2024-03-08T09:54:32;35.63;;;19.90;;
52434;SDS011;38354;52.892;6.148;2024-03-08T09:56:59;37.50;;;19.73;;
52434;SDS011;38354;52.892;6.148;2024-03-08T09:59:25;36.85;;;20.90;;
52434;SDS011;38354;52.892;6.148;2024-03-08T10:01:50;37.50;;;20.38;;
52434;SDS011;38354;52.892;6.148;2024-03-08T10:04:23;35.55;;;20.42;;
52434;SDS011;38354;52.892;6.148;2024-03-08T10:06:50;38.35;;;20.05;;
52434;SDS011;38354;52.892;6.148;2024-03-08T10:09:17;37.33;;;19.95;;
52434;SDS011;38354;52.892;6.148;2024-03-08T10:11:42;39.25;;;21.35;;
52434;SDS011;38354;52.892;6.148;2024-03-08T10:14:08;39.72;;;21.23;;
52434;SDS011;38354;52.892;6.148;2024-03-08T10:16:35;38.20;;;20.58;;
52434;SDS011;38354;52.892;6.148;2024-03-08T10:19:04;42.20;;;21.67;;
52434;SDS011;38354;52.892;6.148;2024-03-08T10:21:31;36.97;;;21.23;;
52434;SDS011;38354;52.892;6.148;2024-03-08T10:23:58;39.38;;;21.05;;
52434;SDS011;38354;52.892;6.148;2024-03-08T10:26:24;35.67;;;20.70;;
52434;SDS011;38354;52.892;6.148;2024-03-08T10:28:53;36.17;;;20.42;;
52434;SDS011;38354;52.892;6.148;2024-03-08T10:31:19;35.30;;;20.00;;
52434;SDS011;38354;52.892;6.148;2024-03-08T10:33:48;35.13;;;20.10;;
52434;SDS011;38354;52.892;6.148;2024-03-08T10:36:16;37.30;;;20.42;;
52434;SDS011;38354;52.892;6.148;2024-03-08T10:38:44;37.10;;;20.63;;
52434;SDS011;38354;52.892;6.148;2024-03-08T10:41:12;36.75;;;20.65;;
52434;SDS011;38354;52.892;6.148;2024-03-08T10:43:43;38.42;;;20.75;;
52434;SDS011;38354;52.892;6.148;2024-03-08T10:49:00;37.63;;;20.63;;
52434;SDS011;38354;52.892;6.148;2024-03-08T10:51:31;35.45;;;20.02;;
52434;SDS011;38354;52.892;6.148;2024-03-08T10:53:57;33.28;;;19.88;;
52434;SDS011;38354;52.892;6.148;2024-03-08T10:56:25;37.67;;;20.55;;
52434;SDS011;38354;52.892;6.148;2024-03-08T10:58:53;36.05;;;20.15;;
52434;SDS011;38354;52.892;6.148;2024-03-08T11:01:20;36.28;;;20.45;;
52434;SDS011;38354;52.892;6.148;2024-03-08T11:03:47;34.95;;;20.63;;
52434;SDS011;38354;52.892;6.148;2024-03-08T11:08:48;37.38;;;20.20;;
52434;SDS011;38354;52.892;6.148;2024-03-08T11:11:33;37.78;;;20.80;;
52434;SDS011;38354;52.892;6.148;2024-03-08T11:14:00;34.40;;;19.33;;
52434;SDS011;38354;52.892;6.148;2024-03-08T11:19:05;34.13;;;19.35;;
52434;SDS011;38354;52.892;6.148;2024-03-08T11:21:56;35.63;;;19.23;;
52434;SDS011;38354;52.892;6.148;2024-03-08T11:24:25;33.85;;;19.30;;
52434;SDS011;38354;52.892;6.148;2024-03-08T11:26:54;36.90;;;19.95;;
52434;SDS011;38354;52.892;6.148;2024-03-08T11:32:04;34.97;;;19.02;;
52434;SDS011;38354;52.892;6.148;2024-03-08T11:34:31;33.88;;;19.85;;
52434;SDS011;38354;52.892;6.148;2024-03-08T11:36:58;33.67;;;20.40;;
52434;SDS011;38354;52.892;6.148;2024-03-08T11:39:24;33.15;;;19.02;;
52434;SDS011;38354;52.892;6.148;2024-03-08T11:41:51;40.13;;;19.95;;
52434;SDS011;38354;52.892;6.148;2024-03-08T11:44:17;32.83;;;19.83;;
52434;SDS011;38354;52.892;6.148;2024-03-08T11:46:42;30.75;;;18.70;;
52434;SDS011;38354;52.892;6.148;2024-03-08T11:49:17;29.83;;;18.38;;
52434;SDS011;38354;52.892;6.148;2024-03-08T11:51:42;29.92;;;18.35;;
52434;SDS011;38354;52.892;6.148;2024-03-08T11:54:12;32.08;;;18.63;;
52434;SDS011;38354;52.892;6.148;2024-03-08T11:56:38;31.63;;;18.10;;
52434;SDS011;38354;52.892;6.148;2024-03-08T11:59:05;30.85;;;18.17;;
52434;SDS011;38354;52.892;6.148;2024-03-08T12:01:35;31.38;;;19.38;;
52434;SDS011;38354;52.892;6.148;2024-03-08T12:04:01;32.50;;;18.27;;
52434;SDS011;38354;52.892;6.148;2024-03-08T12:06:37;33.38;;;18.92;;
52434;SDS011;38354;52.892;6.148;2024-03-08T12:09:10;34.97;;;19.00;;
52434;SDS011;38354;52.892;6.148;2024-03-08T12:11:36;31.27;;;18.92;;
52434;SDS011;38354;52.892;6.148;2024-03-08T12:14:02;34.65;;;17.35;;
52434;SDS011;38354;52.892;6.148;2024-03-08T12:16:28;33.22;;;18.58;;
52434;SDS011;38354;52.892;6.148;2024-03-08T12:18:54;30.85;;;18.10;;
52434;SDS011;38354;52.892;6.148;2024-03-08T12:21:20;34.40;;;18.13;;
52434;SDS011;38354;52.892;6.148;2024-03-08T12:23:51;29.52;;;17.70;;
52434;SDS011;38354;52.892;6.148;2024-03-08T12:26:36;31.00;;;19.17;;
52434;SDS011;38354;52.892;6.148;2024-03-08T12:29:19;27.67;;;17.95;;
52434;SDS011;38354;52.892;6.148;2024-03-08T12:31:47;28.15;;;18.58;;
52434;SDS011;38354;52.892;6.148;2024-03-08T12:34:18;29.98;;;17.77;;
52434;SDS011;38354;52.892;6.148;2024-03-08T12:36:47;34.25;;;18.65;;
52434;SDS011;38354;52.892;6.148;2024-03-08T12:39:15;31.30;;;18.45;;
52434;SDS011;38354;52.892;6.148;2024-03-08T12:41:42;29.45;;;18.40;;
52434;SDS011;38354;52.892;6.148;2024-03-08T12:44:08;27.42;;;17.10;;
52434;SDS011;38354;52.892;6.148;2024-03-08T12:46:36;31.67;;;18.13;;
52434;SDS011;38354;52.892;6.148;2024-03-08T12:49:06;27.67;;;17.20;;
52434;SDS011;38354;52.892;6.148;2024-03-08T12:51:33;28.58;;;18.40;;
52434;SDS011;38354;52.892;6.148;2024-03-08T12:53:58;29.08;;;18.15;;
52434;SDS011;38354;52.892;6.148;2024-03-08T12:56:34;28.13;;;18.00;;
52434;SDS011;38354;52.892;6.148;2024-03-08T12:59:02;28.35;;;17.45;;
52434;SDS011;38354;52.892;6.148;2024-03-08T13:01:29;28.85;;;17.75;;
52434;SDS011;38354;52.892;6.148;2024-03-08T13:03:57;27.55;;;16.33;;
52434;SDS011;38354;52.892;6.148;2024-03-08T13:06:27;27.88;;;16.70;;
52434;SDS011;38354;52.892;6.148;2024-03-08T13:08:54;27.65;;;17.27;;
52434;SDS011;38354;52.892;6.148;2024-03-08T13:11:20;28.27;;;18.27;;
52434;SDS011;38354;52.892;6.148;2024-03-08T13:13:46;32.13;;;17.08;;
52434;SDS011;38354;52.892;6.148;2024-03-08T13:16:12;31.50;;;16.90;;
52434;SDS011;38354;52.892;6.148;2024-03-08T13:18:42;36.03;;;17.17;;
52434;SDS011;38354;52.892;6.148;2024-03-08T13:21:09;31.08;;;15.93;;
52434;SDS011;38354;52.892;6.148;2024-03-08T13:23:40;27.05;;;16.58;;
52434;SDS011;38354;52.892;6.148;2024-03-08T13:26:09;29.30;;;17.60;;
52434;SDS011;38354;52.892;6.148;2024-03-08T13:28:40;30.80;;;16.42;;
52434;SDS011;38354;52.892;6.148;2024-03-08T13:31:10;27.75;;;16.02;;
52434;SDS011;38354;52.892;6.148;2024-03-08T13:33:36;26.40;;;16.13;;
52434;SDS011;38354;52.892;6.148;2024-03-08T13:36:03;26.20;;;15.93;;
52434;SDS011;38354;52.892;6.148;2024-03-08T13:38:31;26.08;;;17.05;;
52434;SDS011;38354;52.892;6.148;2024-03-08T13:40:58;27.58;;;15.32;;
52434;SDS011;38354;52.892;6.148;2024-03-08T13:43:24;25.85;;;15.35;;
52434;SDS011;38354;52.892;6.148;2024-03-08T13:45:50;26.48;;;14.57;;
52434;SDS011;38354;52.892;6.148;2024-03-08T13:48:17;26.08;;;16.42;;
52434;SDS011;38354;52.892;6.148;2024-03-08T13:50:43;26.63;;;16.20;;
52434;SDS011;38354;52.892;6.148;2024-03-08T13:53:09;28.33;;;16.90;;
52434;SDS011;38354;52.892;6.148;2024-03-08T13:55:35;26.17;;;16.13;;
52434;SDS011;38354;52.892;6.148;2024-03-08T13:58:00;28.00;;;16.45;;
52434;SDS011;38354;52.892;6.148;2024-03-08T14:00:27;29.08;;;16.00;;
52434;SDS011;38354;52.892;6.148;2024-03-08T14:02:58;27.15;;;16.33;;
52434;SDS011;38354;52.892;6.148;2024-03-08T14:05:24;26.88;;;15.77;;
52434;SDS011;38354;52.892;6.148;2024-03-08T14:07:50;26.08;;;16.95;;
52434;SDS011;38354;52.892;6.148;2024-03-08T14:10:15;25.75;;;16.63;;
52434;SDS011;38354;52.892;6.148;2024-03-08T14:12:44;27.55;;;16.50;;
52434;SDS011;38354;52.892;6.148;2024-03-08T14:15:13;26.77;;;16.80;;
52434;SDS011;38354;52.892;6.148;2024-03-08T14:17:38;26.75;;;17.05;;
52434;SDS011;38354;52.892;6.148;2024-03-08T14:20:04;23.95;;;15.68;;
52434;SDS011;38354;52.892;6.148;2024-03-08T14:22:31;28.60;;;16.23;;
52434;SDS011;38354;52.892;6.148;2024-03-08T14:24:56;28.25;;;16.30;;
52434;SDS011;38354;52.892;6.148;2024-03-08T14:27:22;31.20;;;17.38;;
52434;SDS011;38354;52.892;6.148;2024-03-08T14:29:48;31.42;;;16.85;;
52434;SDS011;38354;52.892;6.148;2024-03-08T14:32:13;25.75;;;16.50;;
52434;SDS011;38354;52.892;6.148;2024-03-08T14:34:39;28.35;;;16.98;;
52434;SDS011;38354;52.892;6.148;2024-03-08T14:37:05;23.98;;;16.05;;
52434;SDS011;38354;52.892;6.148;2024-03-08T14:39:36;26.45;;;16.10;;
52434;SDS011;38354;52.892;6.148;2024-03-08T14:42:02;27.58;;;16.08;;
52434;SDS011;38354;52.892;6.148;2024-03-08T14:44:28;25.48;;;15.27;;
52434;SDS011;38354;52.892;6.148;2024-03-08T14:46:58;35.60;;;15.88;;
52434;SDS011;38354;52.892;6.148;2024-03-08T14:49:24;24.20;;;15.27;;
52434;SDS011;38354;52.892;6.148;2024-03-08T14:51:55;24.27;;;15.90;;
52434;SDS011;38354;52.892;6.148;2024-03-08T14:54:23;26.90;;;17.35;;
52434;SDS011;38354;52.892;6.148;2024-03-08T14:56:49;26.23;;;16.55;;
52434;SDS011;38354;52.892;6.148;2024-03-08T14:59:17;26.30;;;16.83;;
52434;SDS011;38354;52.892;6.148;2024-03-08T15:01:44;25.85;;;15.85;;
52434;SDS011;38354;52.892;6.148;2024-03-08T15:04:10;28.10;;;16.55;;
52434;SDS011;38354;52.892;6.148;2024-03-08T15:06:40;24.90;;;15.77;;
52434;SDS011;38354;52.892;6.148;2024-03-08T15:09:07;26.20;;;16.10;;
52434;SDS011;38354;52.892;6.148;2024-03-08T15:11:40;24.45;;;15.93;;
52434;SDS011;38354;52.892;6.148;2024-03-08T15:14:07;24.25;;;15.55;;
52434;SDS011;38354;52.892;6.148;2024-03-08T15:16:40;27.05;;;15.98;;
52434;SDS011;38354;52.892;6.148;2024-03-08T15:19:07;25.10;;;16.35;;
52434;SDS011;38354;52.892;6.148;2024-03-08T15:21:33;25.63;;;15.55;;
52434;SDS011;38354;52.892;6.148;2024-03-08T15:23:59;25.67;;;14.88;;
52434;SDS011;38354;52.892;6.148;2024-03-08T15:26:27;24.70;;;16.35;;
52434;SDS011;38354;52.892;6.148;2024-03-08T15:28:55;27.33;;;15.80;;
52434;SDS011;38354;52.892;6.148;2024-03-08T15:31:21;26.13;;;15.10;;
52434;SDS011;38354;52.892;6.148;2024-03-08T15:33:49;24.90;;;16.25;;
52434;SDS011;38354;52.892;6.148;2024-03-08T15:36:26;24.83;;;15.75;;
52434;SDS011;38354;52.892;6.148;2024-03-08T15:38:55;27.52;;;15.93;;
52434;SDS011;38354;52.892;6.148;2024-03-08T15:41:21;26.70;;;16.63;;
52434;SDS011;38354;52.892;6.148;2024-03-08T15:43:47;29.98;;;17.35;;
52434;SDS011;38354;52.892;6.148;2024-03-08T15:46:13;26.52;;;16.35;;
52434;SDS011;38354;52.892;6.148;2024-03-08T15:48:40;25.58;;;16.25;;
52434;SDS011;38354;52.892;6.148;2024-03-08T15:51:07;35.15;;;16.90;;
52434;SDS011;38354;52.892;6.148;2024-03-08T15:53:36;27.10;;;16.42;;
52434;SDS011;38354;52.892;6.148;2024-03-08T15:56:03;26.52;;;16.33;;
52434;SDS011;38354;52.892;6.148;2024-03-08T15:58:31;29.98;;;17.15;;
52434;SDS011;38354;52.892;6.148;2024-03-08T16:00:57;27.83;;;17.98;;
52434;SDS011;38354;52.892;6.148;2024-03-08T16:03:24;30.75;;;17.83;;
52434;SDS011;38354;52.892;6.148;2024-03-08T16:05:50;26.40;;;16.40;;
52434;SDS011;38354;52.892;6.148;2024-03-08T16:08:17;32.25;;;17.00;;
52434;SDS011;38354;52.892;6.148;2024-03-08T16:10:49;27.20;;;17.30;;
52434;SDS011;38354;52.892;6.148;2024-03-08T16:13:20;26.02;;;17.38;;
52434;SDS011;38354;52.892;6.148;2024-03-08T16:15:54;26.05;;;15.55;;
52434;SDS011;38354;52.892;6.148;2024-03-08T16:18:20;26.85;;;17.10;;
52434;SDS011;38354;52.892;6.148;2024-03-08T16:20:47;27.70;;;17.00;;
52434;SDS011;38354;52.892;6.148;2024-03-08T16:23:15;30.85;;;17.80;;
52434;SDS011;38354;52.892;6.148;2024-03-08T16:25:41;27.48;;;17.17;;
52434;SDS011;38354;52.892;6.148;2024-03-08T16:28:07;28.67;;;18.00;;
52434;SDS011;38354;52.892;6.148;2024-03-08T16:30:37;28.55;;;17.83;;
52434;SDS011;38354;52.892;6.148;2024-03-08T16:33:04;29.13;;;17.83;;
52434;SDS011;38354;52.892;6.148;2024-03-08T16:35:30;27.13;;;16.92;;
52434;SDS011;38354;52.892;6.148;2024-03-08T16:37:56;31.40;;;17.98;;
52434;SDS011;38354;52.892;6.148;2024-03-08T16:40:22;28.27;;;17.10;;
52434;SDS011;38354;52.892;6.148;2024-03-08T16:42:49;31.38;;;18.63;;
52434;SDS011;38354;52.892;6.148;2024-03-08T16:45:17;30.98;;;18.27;;
52434;SDS011;38354;52.892;6.148;2024-03-08T16:47:47;29.27;;;17.63;;
52434;SDS011;38354;52.892;6.148;2024-03-08T16:50:17;29.08;;;18.20;;
52434;SDS011;38354;52.892;6.148;2024-03-08T16:52:43;29.77;;;17.73;;
52434;SDS011;38354;52.892;6.148;2024-03-08T16:55:09;29.73;;;17.80;;
52434;SDS011;38354;52.892;6.148;2024-03-08T16:57:43;32.05;;;18.27;;
52434;SDS011;38354;52.892;6.148;2024-03-08T17:00:19;31.40;;;18.85;;
52434;SDS011;38354;52.892;6.148;2024-03-08T17:02:55;30.67;;;17.52;;
52434;SDS011;38354;52.892;6.148;2024-03-08T17:05:22;29.35;;;16.80;;
52434;SDS011;38354;52.892;6.148;2024-03-08T17:07:53;30.92;;;17.58;;
52434;SDS011;38354;52.892;6.148;2024-03-08T17:10:25;39.80;;;17.58;;
52434;SDS011;38354;52.892;6.148;2024-03-08T17:12:55;32.15;;;18.13;;
52434;SDS011;38354;52.892;6.148;2024-03-08T17:15:24;32.17;;;18.65;;
52434;SDS011;38354;52.892;6.148;2024-03-08T17:17:55;31.42;;;18.13;;
52434;SDS011;38354;52.892;6.148;2024-03-08T17:20:24;30.60;;;17.75;;
52434;SDS011;38354;52.892;6.148;2024-03-08T17:22:51;32.95;;;17.13;;
52434;SDS011;38354;52.892;6.148;2024-03-08T17:25:19;33.17;;;19.17;;
52434;SDS011;38354;52.892;6.148;2024-03-08T17:27:47;31.48;;;17.55;;
52434;SDS011;38354;52.892;6.148;2024-03-08T17:30:18;31.60;;;18.10;;
52434;SDS011;38354;52.892;6.148;2024-03-08T17:32:47;34.72;;;18.90;;
52434;SDS011;38354;52.892;6.148;2024-03-08T17:35:14;32.30;;;17.85;;
52434;SDS011;38354;52.892;6.148;2024-03-08T17:37:52;32.60;;;18.02;;
52434;SDS011;38354;52.892;6.148;2024-03-08T17:40:23;28.90;;;16.80;;
52434;SDS011;38354;52.892;6.148;2024-03-08T17:42:59;32.17;;;17.80;;
52434;SDS011;38354;52.892;6.148;2024-03-08T17:45:26;30.88;;;17.13;;
52434;SDS011;38354;52.892;6.148;2024-03-08T17:47:57;31.92;;;18.15;;
52434;SDS011;38354;52.892;6.148;2024-03-08T17:50:23;37.22;;;18.85;;
52434;SDS011;38354;52.892;6.148;2024-03-08T17:52:50;33.25;;;18.67;;
52434;SDS011;38354;52.892;6.148;2024-03-08T17:55:18;34.08;;;18.30;;
52434;SDS011;38354;52.892;6.148;2024-03-08T17:57:47;32.80;;;18.20;;
52434;SDS011;38354;52.892;6.148;2024-03-08T18:00:23;34.72;;;18.45;;
52434;SDS011;38354;52.892;6.148;2024-03-08T18:03:00;35.28;;;19.50;;
52434;SDS011;38354;52.892;6.148;2024-03-08T18:05:27;36.17;;;20.00;;
52434;SDS011;38354;52.892;6.148;2024-03-08T18:07:57;35.88;;;19.75;;
52434;SDS011;38354;52.892;6.148;2024-03-08T18:10:23;38.10;;;20.02;;
52434;SDS011;38354;52.892;6.148;2024-03-08T18:12:53;35.13;;;18.65;;
52434;SDS011;38354;52.892;6.148;2024-03-08T18:15:23;36.85;;;19.70;;
52434;SDS011;38354;52.892;6.148;2024-03-08T18:17:52;38.03;;;20.00;;
52434;SDS011;38354;52.892;6.148;2024-03-08T18:20:20;33.60;;;19.27;;
52434;SDS011;38354;52.892;6.148;2024-03-08T18:22:49;37.25;;;20.42;;
52434;SDS011;38354;52.892;6.148;2024-03-08T18:25:16;35.92;;;18.63;;
52434;SDS011;38354;52.892;6.148;2024-03-08T18:27:45;38.58;;;20.48;;
52434;SDS011;38354;52.892;6.148;2024-03-08T18:30:11;37.58;;;19.80;;
52434;SDS011;38354;52.892;6.148;2024-03-08T18:32:43;39.10;;;19.73;;
52434;SDS011;38354;52.892;6.148;2024-03-08T18:35:10;39.72;;;21.33;;